Time;durP1;ratioP1;P1;durP2;ratioP2;P2;SDS_P1;SDS_P2;PMS_P1;PMS_P2;Temp;Humidity;BMP_temperature;BMP_pressure;BME280_temperature;BME280_humidity;BME280_pressure;Samples;Min_cycle;Max_cycle;Signal;HPM_P1;HPM_P2
2022/08/24 00:01:07;;;;;;;33.65;29.75;;;20.10;99.90;;;;;;5090707;27;20039;-66
2022/08/24 00:03:34;;;;;;;32.88;29.17;;;20.10;99.90;;;;;;5108831;27;20049;-66
2022/08/24 00:06:01;;;;;;;31.35;27.92;;;20.10;99.90;;;;;;5107927;27;20047;-66
2022/08/24 00:08:27;;;;;;;30.65;27.48;;;20.00;99.90;;;;;;5127143;27;20045;-66
2022/08/24 00:10:53;;;;;;;32.03;27.33;;;20.00;99.90;;;;;;5128549;27;20039;-67
2022/08/24 00:13:19;;;;;;;33.17;28.38;;;20.00;99.90;;;;;;5133725;27;20660;-66
2022/08/24 00:15:46;;;;;;;33.30;28.67;;;19.90;99.90;;;;;;5110568;27;20050;-66
2022/08/24 00:18:12;;;;;;;30.98;25.98;;;19.90;99.90;;;;;;5112102;27;20559;-66
2022/08/24 00:20:38;;;;;;;33.47;26.30;;;19.90;99.90;;;;;;5113029;27;20522;-66
2022/08/24 00:23:05;;;;;;;36.67;32.90;;;19.90;99.90;;;;;;5111893;27;20089;-67
2022/08/24 00:25:31;;;;;;;31.30;27.90;;;19.80;99.90;;;;;;5129176;27;20399;-67
2022/08/24 00:27:57;;;;;;;31.45;27.15;;;19.80;99.90;;;;;;5110921;27;20047;-66
2022/08/24 00:30:23;;;;;;;32.15;27.05;;;19.80;99.90;;;;;;5129722;27;20046;-68
2022/08/24 00:32:50;;;;;;;32.92;26.67;;;19.80;99.90;;;;;;5114712;27;20183;-66
2022/08/24 00:35:17;;;;;;;31.73;28.05;;;19.80;99.90;;;;;;5132004;27;20042;-66
2022/08/24 00:37:44;;;;;;;32.00;27.30;;;19.70;99.90;;;;;;5093809;27;20047;-66
2022/08/24 00:40:16;;;;;;;31.80;26.40;;;19.70;99.90;;;;;;5117322;27;20039;-66
2022/08/24 00:42:42;;;;;;;31.38;27.42;;;19.60;99.90;;;;;;5111213;27;20547;-66
2022/08/24 00:45:10;;;;;;;29.67;26.10;;;19.70;99.90;;;;;;5129706;27;20134;-67
2022/08/24 00:47:50;;;;;;;30.92;25.67;;;19.60;99.90;;;;;;5108974;27;20051;-66
2022/08/24 00:50:28;;;;;;;29.30;25.05;;;19.60;99.90;;;;;;5095858;27;20050;-67
2022/08/24 00:53:01;;;;;;;28.38;25.08;;;19.50;99.90;;;;;;5139473;27;20047;-67
2022/08/24 00:55:42;;;;;;;27.95;24.55;;;19.50;99.90;;;;;;5110990;27;20039;-66
2022/08/24 00:58:11;;;;;;;;;;;19.40;99.90;;;;;;5097255;27;20170;-67
2022/08/24 01:00:44;;;;;;;31.35;25.42;;;19.40;99.90;;;;;;5118178;27;19926;-67
2022/08/24 01:03:10;;;;;;;29.33;24.33;;;19.40;99.90;;;;;;5111000;27;20062;-66
2022/08/24 01:05:37;;;;;;;29.35;25.80;;;19.40;99.90;;;;;;5119894;27;20407;-67
2022/08/24 01:08:06;;;;;;;25.58;22.88;;;19.30;99.90;;;;;;5130559;27;20051;-66
2022/08/24 01:10:37;;;;;;;26.73;23.83;;;19.30;99.90;;;;;;5127457;27;20039;-66
2022/08/24 01:13:05;;;;;;;;;;;19.30;99.90;;;;;;5145622;27;20066;-67
2022/08/24 01:15:34;;;;;;;28.83;24.23;;;19.20;99.90;;;;;;5110469;27;19926;-66
2022/08/24 01:20:51;;;;;;;25.55;22.85;;;19.10;99.90;;;;;;5112487;27;20059;-67
2022/08/24 01:23:39;;;;;;;28.92;24.15;;;19.10;99.90;;;;;;5135240;27;20100;-66
2022/08/24 01:26:08;;;;;;;26.42;22.38;;;19.10;99.90;;;;;;5107818;27;20406;-66
2022/08/24 01:28:35;;;;;;;26.00;22.45;;;19.10;99.90;;;;;;5129932;27;20043;-66
2022/08/24 01:31:01;;;;;;;29.05;23.27;;;19.10;99.90;;;;;;5094688;27;20137;-66
2022/08/24 01:33:30;;;;;;;25.38;22.55;;;19.00;99.90;;;;;;5138209;27;20216;-67
2022/08/24 01:36:39;;;;;;;27.92;22.50;;;19.10;99.90;;;;;;5097634;27;20032;-66
2022/08/24 01:39:12;;;;;;;24.02;21.48;;;19.00;99.90;;;;;;5092338;27;20049;-66
2022/08/24 01:41:38;;;;;;;25.27;21.95;;;19.00;99.90;;;;;;5128176;27;20039;-66
2022/08/24 01:44:04;;;;;;;24.13;21.60;;;18.90;99.90;;;;;;5127033;27;20062;-66
2022/08/24 01:46:33;;;;;;;26.67;21.85;;;18.90;99.90;;;;;;5107557;27;20047;-66
2022/08/24 01:48:59;;;;;;;28.27;21.73;;;18.90;99.90;;;;;;5131696;27;20043;-66
2022/08/24 01:51:28;;;;;;;25.13;20.20;;;18.90;99.90;;;;;;5127712;27;20083;-66
2022/08/24 01:53:54;;;;;;;24.25;21.65;;;18.90;99.90;;;;;;5141755;27;20038;-66
2022/08/24 01:56:20;;;;;;;23.40;20.60;;;18.90;99.90;;;;;;5106164;27;20043;-66
2022/08/24 01:58:47;;;;;;;22.55;18.92;;;18.90;99.90;;;;;;5091162;27;20043;-66
2022/08/24 02:01:15;;;;;;;22.88;19.73;;;18.80;99.90;;;;;;5131956;27;20062;-66
2022/08/24 02:03:40;;;;;;;22.77;19.90;;;18.80;99.90;;;;;;5127143;27;20771;-66
2022/08/24 02:06:06;;;;;;;24.30;21.70;;;18.80;99.90;;;;;;5108570;27;20111;-66
2022/08/24 02:08:34;;;;;;;23.23;20.20;;;18.70;99.90;;;;;;5107739;27;20470;-66
2022/08/24 02:11:07;;;;;;;23.48;20.95;;;18.70;99.90;;;;;;5128060;27;20057;-66
2022/08/24 02:13:34;;;;;;;26.00;21.50;;;18.70;99.90;;;;;;5096232;27;20502;-66
2022/08/24 02:16:01;;;;;;;24.95;21.77;;;18.70;99.90;;;;;;5109465;27;20125;-66
2022/08/24 02:18:26;;;;;;;27.20;21.58;;;18.70;99.90;;;;;;5108335;27;20039;-67
2022/08/24 02:20:52;;;;;;;27.23;22.08;;;18.60;99.90;;;;;;5094579;27;20035;-66
2022/08/24 02:23:19;;;;;;;24.40;21.52;;;18.60;99.90;;;;;;5133155;27;20035;-66
2022/08/24 02:25:45;;;;;;;23.92;21.17;;;18.60;99.90;;;;;;5125711;27;20039;-66
2022/08/24 02:28:12;;;;;;;22.38;19.73;;;18.60;99.90;;;;;;5142088;27;20051;-66
2022/08/24 02:30:39;;;;;;;24.85;20.83;;;18.60;99.90;;;;;;5105101;27;20046;-66
2022/08/24 02:33:05;;;;;;;25.98;22.50;;;18.60;99.90;;;;;;5100695;27;20039;-66
2022/08/24 02:35:31;;;;;;;25.80;21.25;;;18.50;99.90;;;;;;5123082;27;20659;-66
2022/08/24 02:37:57;;;;;;;24.60;20.65;;;18.50;99.90;;;;;;5124844;27;20053;-66
2022/08/24 02:40:23;;;;;;;25.05;20.80;;;18.50;99.90;;;;;;5108022;27;20072;-66
2022/08/24 02:42:50;;;;;;;24.20;19.88;;;18.50;99.90;;;;;;5109244;27;20119;-66
2022/08/24 02:45:15;;;;;;;24.05;20.50;;;18.50;99.90;;;;;;5108211;27;20047;-66
2022/08/24 02:47:41;;;;;;;24.17;20.02;;;18.40;99.90;;;;;;5108144;27;20070;-66
2022/08/24 02:50:10;;;;;;;24.23;21.42;;;18.40;99.90;;;;;;5128501;27;20038;-66
2022/08/24 02:52:40;;;;;;;24.40;20.88;;;18.40;99.90;;;;;;5125352;27;20519;-66
2022/08/24 02:55:10;;;;;;;22.67;20.20;;;18.40;99.90;;;;;;5107888;27;20071;-66
2022/08/24 02:57:36;;;;;;;24.77;21.25;;;18.30;99.90;;;;;;5130452;27;20051;-65
2022/08/24 03:00:05;;;;;;;25.10;20.40;;;18.30;99.90;;;;;;5109186;27;20035;-66
2022/08/24 03:02:31;;;;;;;27.70;20.52;;;18.30;99.90;;;;;;5110570;27;20490;-66
2022/08/24 03:04:56;;;;;;;22.88;19.60;;;18.30;99.90;;;;;;5127855;27;20130;-66
2022/08/24 03:07:22;;;;;;;24.33;21.63;;;18.20;99.90;;;;;;5128141;27;20039;-66
2022/08/24 03:09:47;;;;;;;24.88;20.38;;;18.20;99.90;;;;;;5133354;27;20468;-66
2022/08/24 03:12:14;;;;;;;23.77;21.05;;;18.10;99.90;;;;;;5128575;27;20035;-66
2022/08/24 03:14:40;;;;;;;23.75;20.98;;;18.20;99.90;;;;;;5111000;27;20042;-66
2022/08/24 03:17:06;;;;;;;25.45;20.52;;;18.20;99.90;;;;;;5128768;27;20039;-66
2022/08/24 03:19:32;;;;;;;24.02;20.50;;;18.10;99.90;;;;;;5127587;27;20498;-66
2022/08/24 03:21:58;;;;;;;25.98;21.33;;;18.10;99.90;;;;;;5092736;27;20418;-72
2022/08/24 03:24:23;;;;;;;23.77;19.42;;;18.10;99.90;;;;;;5109573;27;20031;-72
2022/08/24 03:26:49;;;;;;;23.60;20.45;;;18.10;99.90;;;;;;5109248;27;20491;-66
2022/08/24 03:29:15;;;;;;;24.08;21.30;;;18.00;99.90;;;;;;5127540;27;20560;-65
2022/08/24 03:31:41;;;;;;;24.92;20.05;;;18.00;99.90;;;;;;5126802;27;20035;-67
2022/08/24 03:34:07;;;;;;;24.08;19.67;;;18.00;99.90;;;;;;5124439;27;20035;-66
2022/08/24 03:36:33;;;;;;;25.95;21.67;;;18.00;99.90;;;;;;5124705;27;20036;-66
2022/08/24 03:38:58;;;;;;;25.02;20.00;;;18.00;99.90;;;;;;5125705;27;20139;-66
2022/08/24 03:41:24;;;;;;;23.60;20.60;;;18.00;99.90;;;;;;5108088;27;20039;-66
2022/08/24 03:43:50;;;;;;;23.30;19.88;;;17.90;99.90;;;;;;5112539;27;20175;-66
2022/08/24 03:46:23;;;;;;;22.45;19.30;;;17.90;99.90;;;;;;5113083;27;20046;-66
2022/08/24 03:48:49;;;;;;;24.23;20.48;;;17.80;99.90;;;;;;5132398;27;20463;-66
2022/08/24 03:51:17;;;;;;;24.42;20.83;;;17.80;99.90;;;;;;5131311;27;20068;-66
2022/08/24 03:53:44;;;;;;;24.30;20.42;;;17.80;99.90;;;;;;5111640;27;20388;-66
2022/08/24 03:56:10;;;;;;;24.70;21.70;;;17.80;99.90;;;;;;5137800;27;20050;-66
2022/08/24 03:58:37;;;;;;;24.77;21.40;;;17.80;99.90;;;;;;5115952;27;20046;-66
2022/08/24 04:01:04;;;;;;;23.50;20.63;;;17.80;99.90;;;;;;5131447;27;20099;-67
2022/08/24 04:03:35;;;;;;;24.75;21.33;;;17.80;99.90;;;;;;5110168;27;21118;-66
2022/08/24 04:06:00;;;;;;;29.02;21.95;;;17.70;99.90;;;;;;5112372;27;20038;-66
2022/08/24 04:08:26;;;;;;;27.60;22.38;;;17.70;99.90;;;;;;5129417;27;20039;-66
2022/08/24 04:10:53;;;;;;;26.55;22.30;;;17.70;99.90;;;;;;5114178;27;20132;-66
2022/08/24 04:13:19;;;;;;;28.63;22.55;;;17.70;99.90;;;;;;5113751;27;20070;-67
2022/08/24 04:15:45;;;;;;;24.48;21.85;;;17.60;99.90;;;;;;5131870;27;20440;-66
2022/08/24 04:18:11;;;;;;;24.85;21.98;;;17.70;99.90;;;;;;5110896;27;20138;-66
2022/08/24 04:20:42;;;;;;;26.08;22.42;;;17.70;99.90;;;;;;5105175;27;20118;-66
2022/08/24 04:23:08;;;;;;;25.45;21.35;;;17.70;99.90;;;;;;5114020;27;20028;-66
2022/08/24 04:25:43;;;;;;;24.40;21.20;;;17.70;99.90;;;;;;5110020;27;20043;-66
2022/08/24 04:28:10;;;;;;;24.08;20.88;;;17.70;99.90;;;;;;5121307;27;20097;-65
2022/08/24 04:30:40;;;;;;;25.63;20.92;;;17.70;99.90;;;;;;5111722;27;20046;-66
2022/08/24 04:33:05;;;;;;;24.10;20.55;;;17.70;99.90;;;;;;5111965;27;20074;-66
2022/08/24 04:35:35;;;;;;;23.85;20.67;;;17.70;99.90;;;;;;5110321;27;20112;-66
2022/08/24 04:38:01;;;;;;;24.30;20.52;;;17.70;99.90;;;;;;5111080;27;20158;-66
2022/08/24 04:40:26;;;;;;;28.85;22.92;;;17.70;99.90;;;;;;5111608;27;20444;-66
2022/08/24 04:42:52;;;;;;;24.88;20.67;;;17.70;99.90;;;;;;5110151;27;20047;-66
2022/08/24 04:45:18;;;;;;;25.48;21.42;;;17.60;99.90;;;;;;5110655;27;20039;-67
2022/08/24 04:47:44;;;;;;;23.38;20.67;;;17.70;99.90;;;;;;5130003;27;20511;-66
2022/08/24 04:50:10;;;;;;;24.70;21.10;;;17.70;99.90;;;;;;5145576;27;20097;-66
2022/08/24 04:52:36;;;;;;;24.75;21.00;;;17.70;99.90;;;;;;5141661;27;20042;-66
2022/08/24 04:55:02;;;;;;;24.38;20.20;;;17.70;99.90;;;;;;5109486;27;20039;-66
2022/08/24 04:57:28;;;;;;;29.52;24.85;;;17.70;99.90;;;;;;5108026;27;20492;-66
2022/08/24 04:59:57;;;;;;;30.13;25.67;;;17.70;99.90;;;;;;5141782;27;20053;-66
2022/08/24 05:02:23;;;;;;;24.92;22.13;;;17.70;99.90;;;;;;5094496;27;20227;-66
2022/08/24 05:04:48;;;;;;;27.10;22.50;;;17.80;99.90;;;;;;5129485;27;20051;-66
2022/08/24 05:07:14;;;;;;;25.10;22.40;;;17.80;99.90;;;;;;5109461;27;20039;-66
2022/08/24 05:09:40;;;;;;;25.65;22.25;;;17.80;99.90;;;;;;5110593;27;20652;-66
2022/08/24 05:12:06;;;;;;;25.58;22.23;;;17.80;99.90;;;;;;5140558;27;20043;-66
2022/08/24 05:14:32;;;;;;;27.25;23.13;;;17.80;99.90;;;;;;5128089;27;20063;-66
2022/08/24 05:16:57;;;;;;;29.90;23.48;;;17.80;99.90;;;;;;5138395;27;20135;-66
2022/08/24 05:19:23;;;;;;;25.23;21.27;;;18.00;99.90;;;;;;5135099;27;20154;-66
2022/08/24 05:21:49;;;;;;;25.92;22.80;;;17.80;99.90;;;;;;5110010;27;20452;-66
2022/08/24 05:24:15;;;;;;;27.08;22.90;;;17.90;99.90;;;;;;5109450;27;20046;-67
2022/08/24 05:26:40;;;;;;;24.88;21.52;;;17.90;99.90;;;;;;5107536;27;20046;-66
2022/08/24 05:29:06;;;;;;;29.67;22.45;;;18.10;99.90;;;;;;5109948;27;20043;-66
2022/08/24 05:31:33;;;;;;;24.25;21.65;;;18.40;99.90;;;;;;5132121;27;20035;-66
2022/08/24 05:34:00;;;;;;;26.17;20.80;;;18.70;99.90;;;;;;5137767;27;20104;-66
2022/08/24 05:36:29;;;;;;;26.73;21.50;;;19.00;99.90;;;;;;5133580;27;20488;-67
2022/08/24 05:38:59;;;;;;;24.35;21.40;;;19.20;99.90;;;;;;5092730;27;20047;-66
2022/08/24 05:41:26;;;;;;;25.65;21.40;;;19.30;99.90;;;;;;5114407;27;20042;-66
2022/08/24 05:43:52;;;;;;;24.65;19.92;;;19.20;99.90;;;;;;5109361;27;20449;-67
2022/08/24 05:46:19;;;;;;;27.95;23.10;;;19.20;99.90;;;;;;5112295;27;20043;-66
2022/08/24 05:48:45;;;;;;;23.75;20.20;;;19.10;99.90;;;;;;5136201;27;20050;-66
2022/08/24 05:51:11;;;;;;;28.42;24.27;;;19.00;99.90;;;;;;5110647;27;20047;-66
2022/08/24 05:53:38;;;;;;;25.98;20.60;;;19.00;99.90;;;;;;5112012;27;20466;-66
2022/08/24 05:56:07;;;;;;;26.23;23.17;;;18.90;99.90;;;;;;5127760;27;20384;-66
2022/08/24 05:58:34;;;;;;;29.45;23.77;;;18.90;99.90;;;;;;5127607;27;20081;-66
2022/08/24 06:01:06;;;;;;;29.55;22.33;;;18.90;99.90;;;;;;5110515;27;20428;-66
2022/08/24 06:03:32;;;;;;;26.85;23.55;;;18.90;99.90;;;;;;5106657;27;20289;-67
2022/08/24 06:05:57;;;;;;;26.50;22.27;;;18.90;99.90;;;;;;5091977;27;20578;-67
2022/08/24 06:08:23;;;;;;;28.25;22.17;;;18.90;99.90;;;;;;5128860;27;20035;-67
2022/08/24 06:10:49;;;;;;;29.65;21.58;;;18.90;99.90;;;;;;5126315;27;20111;-66
2022/08/24 06:13:15;;;;;;;31.80;24.55;;;19.00;99.90;;;;;;5092945;27;20035;-66
2022/08/24 06:15:42;;;;;;;33.47;24.02;;;19.00;99.90;;;;;;5108533;27;20046;-66
2022/08/24 06:18:08;;;;;;;31.08;23.02;;;19.00;99.90;;;;;;5107634;27;20477;-66
2022/08/24 06:20:39;;;;;;;28.13;22.48;;;19.00;99.90;;;;;;5109827;27;20039;-67
2022/08/24 06:23:05;;;;;;;31.63;24.90;;;19.10;99.90;;;;;;5108462;27;20126;-67
2022/08/24 06:28:16;;;;;;;26.45;23.58;;;19.10;99.90;;;;;;5139110;27;20055;-67
2022/08/24 06:30:44;;;;;;;33.50;25.33;;;19.20;99.90;;;;;;5117345;27;20452;-67
2022/08/24 06:33:10;;;;;;;24.98;22.30;;;19.20;99.90;;;;;;5106316;27;20062;-66
2022/08/24 06:35:36;;;;;;;29.83;24.10;;;19.20;99.90;;;;;;5102672;27;20400;-66
2022/08/24 06:38:02;;;;;;;27.13;22.88;;;19.20;99.90;;;;;;5122123;27;20061;-66
2022/08/24 06:40:27;;;;;;;26.45;23.42;;;19.30;99.90;;;;;;5103047;27;20411;-67
2022/08/24 06:42:53;;;;;;;28.10;22.63;;;19.40;99.90;;;;;;5085190;27;20039;-67
2022/08/24 06:45:21;;;;;;;26.27;22.20;;;19.50;99.90;;;;;;5115411;27;20510;-66
2022/08/24 06:47:47;;;;;;;29.33;23.58;;;19.60;99.90;;;;;;5104873;27;20413;-67
2022/08/24 06:50:12;;;;;;;25.27;22.27;;;19.70;99.90;;;;;;5104467;27;20046;-66
2022/08/24 06:52:39;;;;;;;27.48;20.10;;;19.70;99.90;;;;;;5103903;27;20509;-66
2022/08/24 06:55:05;;;;;;;27.13;19.67;;;19.80;99.90;;;;;;5087364;28;20046;-66
2022/08/24 06:57:31;;;;;;;24.73;19.38;;;19.80;99.90;;;;;;5104791;28;20477;-66
2022/08/24 06:59:57;;;;;;;21.55;18.33;;;19.90;99.90;;;;;;5105714;28;20582;-66
2022/08/24 07:02:23;;;;;;;26.77;19.60;;;19.90;99.90;;;;;;5120366;27;20091;-66
2022/08/24 07:04:49;;;;;;;22.02;17.70;;;20.00;99.90;;;;;;5096456;27;20039;-66
2022/08/24 07:07:16;;;;;;;25.05;19.48;;;20.00;99.90;;;;;;5115474;27;20040;-66
2022/08/24 07:09:42;;;;;;;23.75;19.67;;;20.00;99.90;;;;;;5100225;27;20039;-66
2022/08/24 07:12:08;;;;;;;20.67;18.45;;;20.10;99.90;;;;;;5101287;27;20039;-66
2022/08/24 07:14:34;;;;;;;22.92;19.05;;;20.20;99.90;;;;;;5102566;27;20613;-66
2022/08/24 07:17:00;;;;;;;27.02;17.48;;;20.20;99.90;;;;;;5124946;27;20385;-66
2022/08/24 07:19:25;;;;;;;20.15;17.17;;;20.30;99.90;;;;;;5130157;27;20087;-66
2022/08/24 07:21:56;;;;;;;19.73;16.00;;;20.40;99.90;;;;;;5103419;27;20144;-66
2022/08/24 07:24:22;;;;;;;20.08;15.60;;;20.50;99.90;;;;;;5108212;27;20065;-66
2022/08/24 07:26:48;;;;;;;20.83;14.02;;;20.60;99.90;;;;;;5112881;27;20043;-67
2022/08/24 07:29:14;;;;;;;20.83;14.63;;;20.70;99.90;;;;;;5108592;27;20419;-67
2022/08/24 07:31:42;;;;;;;19.23;13.63;;;20.80;99.90;;;;;;5125906;27;20081;-66
2022/08/24 07:34:09;;;;;;;17.67;14.07;;;21.10;99.90;;;;;;5120771;27;20411;-67
2022/08/24 07:36:37;;;;;;;17.05;11.43;;;21.20;99.90;;;;;;5125425;27;20054;-67
2022/08/24 07:39:04;;;;;;;17.17;11.95;;;21.40;99.90;;;;;;5094421;27;20513;-67
2022/08/24 07:41:34;;;;;;;18.98;11.95;;;21.60;99.90;;;;;;5107949;27;20061;-67
2022/08/24 07:43:59;;;;;;;18.65;12.65;;;21.80;99.90;;;;;;5106286;27;20062;-67
2022/08/24 07:46:25;;;;;;;17.15;12.10;;;22.00;99.90;;;;;;5122044;27;20043;-67
2022/08/24 07:48:51;;;;;;;16.70;11.82;;;22.10;99.90;;;;;;5088695;27;20974;-67
2022/08/24 07:51:19;;;;;;;15.52;12.13;;;22.30;99.90;;;;;;5121641;27;20774;-67
2022/08/24 07:53:45;;;;;;;15.73;11.57;;;22.50;99.90;;;;;;5125626;27;20047;-67
2022/08/24 07:56:11;;;;;;;17.75;12.55;;;22.60;99.90;;;;;;5107819;27;20047;-67
2022/08/24 07:58:37;;;;;;;14.20;9.90;;;22.80;99.90;;;;;;5104272;27;20035;-67
2022/08/24 08:01:04;;;;;;;13.50;10.63;;;23.00;99.90;;;;;;5097269;27;20079;-67
2022/08/24 08:03:32;;;;;;;14.57;10.25;;;23.10;99.90;;;;;;5116838;27;20043;-67
2022/08/24 08:06:01;;;;;;;15.98;10.10;;;23.30;99.90;;;;;;5079527;27;20043;-67
2022/08/24 08:08:27;;;;;;;14.65;9.63;;;23.50;99.90;;;;;;5128531;27;20035;-66
2022/08/24 08:10:53;;;;;;;11.60;8.95;;;23.60;99.90;;;;;;5087980;27;20039;-67
2022/08/24 08:13:19;;;;;;;16.27;7.80;;;23.80;99.90;;;;;;5111733;27;20115;-66
2022/08/24 08:15:45;;;;;;;10.00;7.40;;;23.90;99.90;;;;;;5108036;27;20548;-66
2022/08/24 08:18:12;;;;;;;12.75;7.30;;;24.10;99.90;;;;;;5115093;27;20058;-66
2022/08/24 08:20:40;;;;;;;9.85;7.93;;;24.30;99.90;;;;;;5115573;27;20035;-66
2022/08/24 08:25:53;;;;;;;11.27;7.75;;;24.50;99.90;;;;;;5088754;27;20051;-67
2022/08/24 08:28:20;;;;;;;12.75;6.80;;;24.60;99.90;;;;;;5112707;27;20100;-67
2022/08/24 08:30:46;;;;;;;14.00;8.38;;;24.80;99.90;;;;;;5104315;27;20058;-67
2022/08/24 08:33:12;;;;;;;13.80;7.60;;;24.80;99.90;;;;;;5100731;27;20092;-67
2022/08/24 08:35:39;;;;;;;11.30;7.18;;;24.90;99.90;;;;;;5090458;27;20096;-67
2022/08/24 08:38:07;;;;;;;10.65;8.30;;;25.00;99.90;;;;;;5118259;27;20385;-66
2022/08/24 08:40:54;;;;;;;11.25;6.78;;;25.20;99.90;;;;;;5101557;27;20051;-67
2022/08/24 08:43:32;;;;;;;12.95;8.75;;;25.30;99.90;;;;;;5119036;27;20061;-67
2022/08/24 08:46:06;;;;;;;14.23;8.40;;;25.30;99.90;;;;;;5129538;27;20406;-67
2022/08/24 08:48:41;;;;;;;11.80;7.50;;;25.40;99.90;;;;;;5125946;27;20122;-68
2022/08/24 08:51:15;;;;;;;14.02;7.43;;;25.50;99.90;;;;;;5112477;27;20061;-68
2022/08/24 08:53:53;;;;;;;12.85;6.10;;;25.60;99.90;;;;;;5099520;27;20223;-67
2022/08/24 08:56:27;;;;;;;14.10;7.05;;;25.70;99.90;;;;;;5130288;27;20050;-67
2022/08/24 08:58:56;;;;;;;8.50;5.28;;;25.70;99.90;;;;;;5112711;27;20188;-67
2022/08/24 09:01:31;;;;;;;9.00;5.13;;;25.80;99.90;;;;;;5114028;27;20050;-67
2022/08/24 09:04:28;;;;;;;10.23;5.57;;;25.90;99.90;;;;;;5094556;27;20672;-66
2022/08/24 09:07:19;;;;;;;9.27;5.00;;;26.10;99.90;;;;;;5109882;27;20070;-68
2022/08/24 09:09:47;;;;;;;11.18;5.65;;;26.20;99.90;;;;;;5095012;27;20051;-67
2022/08/24 09:12:38;;;;;;;10.85;4.70;;;26.30;99.90;;;;;;5100392;27;20050;-67
2022/08/24 09:15:41;;;;;;;12.77;5.45;;;26.30;99.90;;;;;;5094941;27;20054;-67
2022/08/24 09:18:24;;;;;;;9.90;4.18;;;26.30;99.90;;;;;;5088703;27;20036;-67
2022/08/24 09:21:18;;;;;;;10.88;4.20;;;26.30;99.90;;;;;;5107318;27;20187;-68
2022/08/24 09:23:59;;;;;;;13.60;3.97;;;26.40;99.90;;;;;;5069103;27;20803;-67
2022/08/24 09:26:56;;;;;;;9.10;3.28;;;26.50;99.90;;;;;;5123729;27;20135;-67
2022/08/24 09:29:49;;;;;;;9.18;3.95;;;26.60;99.90;;;;;;5097754;27;20046;-67
2022/08/24 09:32:38;;;;;;;7.63;3.72;;;26.70;99.90;;;;;;5085783;27;20075;-67
2022/08/24 09:35:08;;;;;;;8.57;2.75;;;26.80;99.90;;;;;;5104870;27;20515;-67
2022/08/24 09:37:59;;;;;;;7.38;2.53;;;26.80;99.90;;;;;;5092091;27;20227;-67
2022/08/24 09:40:39;;;;;;;7.65;2.70;;;26.90;99.90;;;;;;5108437;27;20051;-68
2022/08/24 09:43:39;;;;;;;9.20;2.92;;;27.00;99.90;;;;;;5080280;27;20054;-67
2022/08/24 09:46:08;;;;;;;6.95;2.60;;;27.20;99.90;;;;;;5112573;27;20059;-67
2022/08/24 09:49:01;;;;;;;6.75;2.50;;;27.20;99.90;;;;;;5120393;27;20077;-66
2022/08/24 09:52:03;;;;;;;6.97;2.20;;;27.30;99.90;;;;;;5102261;27;20408;-67
2022/08/24 09:54:54;;;;;;;6.93;2.88;;;27.30;99.90;;;;;;5111806;27;20044;-66
2022/08/24 09:57:43;;;;;;;7.78;2.47;;;27.40;99.90;;;;;;5119932;27;20043;-73
2022/08/24 10:00:23;;;;;;;8.57;2.63;;;27.50;99.90;;;;;;5086461;27;20762;-73
2022/08/24 10:03:15;;;;;;;5.95;2.13;;;27.50;99.90;;;;;;5106428;27;20059;-73
2022/08/24 10:05:53;;;;;;;7.78;2.38;;;27.60;99.90;;;;;;5080257;27;20197;-73
2022/08/24 10:09:13;;;;;;;8.35;3.10;;;27.70;99.90;;;;;;5119237;27;20048;-73
2022/08/24 10:12:12;;;;;;;6.47;2.47;;;27.70;99.90;;;;;;4986411;28;20137;-67
2022/08/24 10:15:07;;;;;;;4.82;2.38;;;27.80;99.90;;;;;;5000020;28;20616;-68
2022/08/24 10:18:07;;;;;;;4.88;1.98;;;27.80;99.90;;;;;;5094694;27;21076;-68
2022/08/24 10:20:57;;;;;;;4.60;1.70;;;27.90;99.90;;;;;;5113668;27;20039;-67
2022/08/24 10:23:29;;;;;;;7.13;2.30;;;28.00;99.90;;;;;;5110019;27;20058;-67
2022/08/24 10:26:33;;;;;;;4.60;1.92;;;28.00;99.90;;;;;;5088061;27;20510;-68
2022/08/24 10:28:58;;;;;;;4.00;2.10;;;28.10;99.90;;;;;;5025177;28;20045;-68
2022/08/24 10:31:39;;;;;;;5.82;2.05;;;28.10;99.90;;;;;;5015614;28;20055;-68
2022/08/24 10:34:17;;;;;;;4.82;1.80;;;28.20;99.90;;;;;;5055333;27;20081;-68
2022/08/24 10:36:51;;;;;;;4.68;1.70;;;28.20;99.90;;;;;;5110222;27;20046;-68
2022/08/24 10:39:49;;;;;;;5.45;1.77;;;28.20;99.90;;;;;;5113696;27;20123;-68
2022/08/24 10:45:28;;;;;;;5.00;2.00;;;28.30;99.90;;;;;;5081517;27;20456;-68
2022/08/24 10:48:28;;;;;;;4.97;1.88;;;28.30;99.90;;;;;;5109555;27;20043;-68
2022/08/24 10:51:28;;;;;;;6.95;2.28;;;28.20;99.90;;;;;;5089576;27;20039;-68
2022/08/24 10:53:55;;;;;;;7.23;2.40;;;28.10;99.90;;;;;;5113458;27;20083;-68
2022/08/24 10:56:54;;;;;;;5.07;2.47;;;28.10;99.90;;;;;;5077800;27;20256;-68
2022/08/24 10:59:50;;;;;;;6.40;1.85;;;28.10;99.90;;;;;;5038146;27;20051;-69
2022/08/24 11:02:29;;;;;;;6.30;1.55;;;28.10;99.90;;;;;;5068629;27;20054;-69
2022/08/24 11:05:09;;;;;;;7.38;1.63;;;28.20;99.90;;;;;;5105514;27;20043;-68
2022/08/24 11:07:44;;;;;;;3.97;1.63;;;28.30;99.90;;;;;;5089918;27;20074;-68
2022/08/24 11:10:27;;;;;;;4.35;1.67;;;28.40;99.90;;;;;;5075713;27;20415;-68
2022/08/24 11:12:54;;;;;;;5.57;1.70;;;28.40;99.90;;;;;;5122710;27;20135;-68
2022/08/24 11:15:25;;;;;;;5.32;1.60;;;28.50;99.90;;;;;;5109028;27;20035;-68
2022/08/24 11:17:55;;;;;;;4.47;1.70;;;28.60;99.90;;;;;;5109471;27;20065;-68
2022/08/24 11:20:30;;;;;;;;;;;28.60;99.90;;;;;;5111651;27;20039;-68
2022/08/24 11:22:59;;;;;;;4.97;1.45;;;28.60;99.90;;;;;;5126800;27;19963;-68
2022/08/24 11:25:30;;;;;;;4.78;1.70;;;28.80;99.90;;;;;;5089400;27;20039;-69
2022/08/24 11:28:03;;;;;;;4.75;1.40;;;28.90;99.90;;;;;;5120054;27;20073;-69
2022/08/24 11:30:29;;;;;;;3.40;1.17;;;29.00;99.90;;;;;;5120147;27;20038;-68
2022/08/24 11:33:01;;;;;;;4.15;1.20;;;29.10;99.90;;;;;;5079521;27;20043;-69
2022/08/24 11:35:35;;;;;;;2.92;1.38;;;29.20;99.90;;;;;;5075355;27;20035;-70
2022/08/24 11:38:19;;;;;;;5.05;1.65;;;29.20;99.90;;;;;;5096586;27;20043;-68
2022/08/24 11:40:54;;;;;;;4.57;1.48;;;29.20;99.90;;;;;;5120543;27;20431;-69
2022/08/24 11:43:28;;;;;;;3.40;1.58;;;29.30;99.90;;;;;;5110189;27;20259;-68
2022/08/24 11:46:15;;;;;;;3.70;1.60;;;29.30;99.90;;;;;;5089481;27;20055;-69
2022/08/24 11:49:00;;;;;;;4.65;1.42;;;29.30;99.90;;;;;;5121884;27;20074;-68
2022/08/24 11:52:01;;;;;;;3.53;1.38;;;29.30;99.90;;;;;;5090141;27;20031;-69
2022/08/24 11:54:36;;;;;;;3.97;1.30;;;29.20;99.90;;;;;;5088362;27;20054;-69
2022/08/24 11:57:08;;;;;;;3.10;1.23;;;29.20;99.90;;;;;;5109626;27;20046;-69
2022/08/24 11:59:47;;;;;;;6.63;1.42;;;29.20;99.90;;;;;;5075228;27;20400;-67
2022/08/24 12:02:21;;;;;;;2.95;1.35;;;29.20;99.90;;;;;;5116277;27;20404;-68
2022/08/24 12:05:09;;;;;;;3.15;1.52;;;29.10;99.90;;;;;;5098383;27;20035;-68
2022/08/24 12:07:40;;;;;;;3.22;1.20;;;29.10;99.90;;;;;;5108221;27;20036;-67
2022/08/24 12:10:25;;;;;;;6.78;1.23;;;29.10;99.90;;;;;;5106287;27;20083;-68
2022/08/24 12:12:58;;;;;;;3.30;1.20;;;29.20;99.90;;;;;;5093214;27;20042;-68
2022/08/24 12:15:36;;;;;;;2.95;1.05;;;29.20;99.90;;;;;;5111537;27;20103;-69
2022/08/24 12:18:16;;;;;;;3.45;1.40;;;29.30;99.90;;;;;;5101278;27;20043;-69
2022/08/24 12:20:47;;;;;;;4.13;1.40;;;29.20;99.90;;;;;;5111912;27;20054;-70
2022/08/24 12:23:29;;;;;;;4.75;2.15;;;29.10;99.90;;;;;;5093076;27;20134;-70
2022/08/24 12:26:03;;;;;;;3.42;1.27;;;29.20;99.90;;;;;;5102383;27;20039;-70
2022/08/24 12:28:52;;;;;;;3.42;1.30;;;29.20;99.90;;;;;;5106631;27;20461;-70
2022/08/24 12:31:42;;;;;;;4.10;1.30;;;29.30;99.90;;;;;;5101413;27;20047;-70
2022/08/24 12:34:19;;;;;;;3.30;1.15;;;29.50;99.90;;;;;;5119645;27;20043;-70
2022/08/24 12:37:19;;;;;;;4.35;1.10;;;29.50;99.90;;;;;;5124832;27;20223;-70
2022/08/24 12:39:55;;;;;;;5.32;1.33;;;29.40;99.90;;;;;;5121113;27;20042;-69
2022/08/24 12:42:34;;;;;;;3.90;1.17;;;29.40;99.90;;;;;;5123445;27;20042;-70
2022/08/24 12:45:06;;;;;;;3.87;1.10;;;29.50;99.90;;;;;;5121748;27;20521;-70
2022/08/24 12:47:54;;;;;;;5.10;1.40;;;29.60;99.90;;;;;;5107443;27;20051;-70
2022/08/24 12:50:37;;;;;;;3.10;1.20;;;29.60;99.90;;;;;;5124943;27;20047;-70
2022/08/24 12:53:32;;;;;;;2.05;1.00;;;29.70;99.90;;;;;;5124387;27;20173;-69
2022/08/24 12:56:17;;;;;;;3.90;1.00;;;29.80;99.90;;;;;;5137761;27;20080;-67
2022/08/24 12:58:55;;;;;;;3.50;1.10;;;29.80;99.90;;;;;;5123700;27;20491;-67
2022/08/24 13:01:24;;;;;;;2.30;1.00;;;29.70;99.90;;;;;;5120764;27;21442;-67
2022/08/24 13:04:18;;;;;;;2.22;0.85;;;29.60;99.90;;;;;;5116918;27;20039;-70
2022/08/24 13:07:30;;;;;;;3.08;1.20;;;29.40;99.90;;;;;;5114296;27;20126;-69
2022/08/24 13:09:58;;;;;;;2.97;1.10;;;29.40;99.90;;;;;;5109714;27;20089;-68